Time;durP1;ratioP1;P1;durP2;ratioP2;P2;SDS_P1;SDS_P2;PMS_P1;PMS_P2;Temp;Humidity;BMP_temperature;BMP_pressure;BME280_temperature;BME280_humidity;BME280_pressure;Samples;Min_cycle;Max_cycle;Signal;HPM_P1;HPM_P2
2022/02/20 00:00:35;;;;;;;4.13;1.10;;;5.80;90.90;;;;;;5051496;28;20104;-76
2022/02/20 00:03:01;;;;;;;6.15;1.10;;;5.70;91.30;;;;;;5052029;28;20108;-78
2022/02/20 00:05:26;;;;;;;6.05;1.38;;;5.80;91.50;;;;;;5052400;28;20036;-73
2022/02/20 00:07:52;;;;;;;4.68;1.13;;;5.80;92.00;;;;;;5071907;28;20100;-78
2022/02/20 00:10:17;;;;;;;7.03;1.25;;;5.70;92.60;;;;;;5071928;28;20449;-78
2022/02/20 00:12:43;;;;;;;9.20;1.73;;;5.70;93.60;;;;;;5070793;28;20096;-78
2022/02/20 00:15:09;;;;;;;8.80;0.80;;;5.60;94.50;;;;;;5071944;28;20115;-79
2022/02/20 00:17:35;;;;;;;7.82;0.98;;;5.60;95.50;;;;;;5070097;28;20039;-79
2022/02/20 00:20:00;;;;;;;7.47;1.30;;;5.50;96.10;;;;;;5071872;28;20103;-78
2022/02/20 00:22:27;;;;;;;3.72;1.30;;;5.50;96.70;;;;;;5071810;28;20060;-73
2022/02/20 00:24:55;;;;;;;6.95;1.65;;;5.40;97.00;;;;;;5072000;28;20071;-77
2022/02/20 00:27:22;;;;;;;9.70;1.42;;;5.40;97.60;;;;;;5071387;28;20382;-76
2022/02/20 00:29:47;;;;;;;11.20;1.30;;;5.40;97.90;;;;;;5071167;28;20074;-77
2022/02/20 00:32:13;;;;;;;8.27;1.30;;;5.40;98.10;;;;;;5071866;28;20032;-76
2022/02/20 00:34:39;;;;;;;6.18;1.20;;;5.40;98.50;;;;;;5071146;28;20043;-75
2022/02/20 00:37:05;;;;;;;10.07;1.10;;;5.40;98.70;;;;;;5071787;28;20021;-77
2022/02/20 00:39:31;;;;;;;6.97;1.23;;;5.30;99.00;;;;;;5071128;28;20035;-76
2022/02/20 00:41:57;;;;;;;6.45;1.15;;;5.30;99.90;;;;;;5071434;28;20059;-76
2022/02/20 00:44:23;;;;;;;7.63;1.52;;;5.20;99.90;;;;;;5055560;28;20112;-76
2022/02/20 00:46:49;;;;;;;6.30;1.00;;;5.10;99.90;;;;;;5054577;28;20120;-76
2022/02/20 00:49:15;;;;;;;7.00;1.15;;;5.10;99.90;;;;;;5055875;28;20091;-77
2022/02/20 00:51:41;;;;;;;8.45;1.33;;;5.00;99.90;;;;;;5054943;28;20060;-77
2022/02/20 00:54:09;;;;;;;7.40;1.23;;;5.00;99.90;;;;;;5055820;28;20462;-77
2022/02/20 00:56:36;;;;;;;6.05;0.90;;;5.00;99.90;;;;;;5054669;28;20032;-76
2022/02/20 00:59:05;;;;;;;14.20;1.48;;;4.90;99.90;;;;;;5055140;28;20033;-77
2022/02/20 01:01:32;;;;;;;11.05;1.25;;;4.90;99.90;;;;;;5054880;28;20029;-76
2022/02/20 01:03:58;;;;;;;8.60;0.98;;;4.90;99.90;;;;;;5055411;28;20041;-77
2022/02/20 01:06:24;;;;;;;7.55;1.13;;;4.90;99.90;;;;;;5055235;28;20470;-77
2022/02/20 01:08:50;;;;;;;10.30;1.17;;;4.90;99.90;;;;;;5054718;28;20117;-77
2022/02/20 01:11:16;;;;;;;7.30;1.23;;;4.90;99.90;;;;;;5055524;28;20403;-77
2022/02/20 01:13:42;;;;;;;7.43;0.80;;;4.90;99.90;;;;;;5054405;28;20163;-77
2022/02/20 01:16:08;;;;;;;5.78;1.20;;;4.90;99.90;;;;;;5055367;28;20029;-77
2022/02/20 01:18:34;;;;;;;6.50;1.33;;;4.90;99.90;;;;;;5054304;28;20055;-76
2022/02/20 01:20:59;;;;;;;6.07;0.85;;;4.90;99.90;;;;;;5054972;28;20032;-76
2022/02/20 01:23:25;;;;;;;5.30;1.00;;;4.90;99.90;;;;;;5055052;28;20029;-76
2022/02/20 01:25:51;;;;;;;5.68;1.08;;;4.90;99.90;;;;;;5054597;28;20067;-76
2022/02/20 01:28:18;;;;;;;5.35;1.20;;;4.90;99.90;;;;;;5054886;28;20041;-76
2022/02/20 01:30:43;;;;;;;6.90;0.88;;;4.80;99.90;;;;;;5054658;28;20104;-76
2022/02/20 01:33:09;;;;;;;6.00;1.17;;;4.80;99.90;;;;;;5055046;28;20119;-76
2022/02/20 01:35:34;;;;;;;9.98;1.30;;;4.80;99.90;;;;;;5054400;28;20025;-76
2022/02/20 01:38:00;;;;;;;8.20;1.30;;;4.90;99.90;;;;;;5054803;28;20071;-76
2022/02/20 01:40:30;;;;;;;7.57;1.10;;;4.90;99.90;;;;;;5054548;28;20578;-76
2022/02/20 01:42:59;;;;;;;5.75;0.77;;;4.90;99.90;;;;;;5054474;28;20107;-75
2022/02/20 01:45:25;;;;;;;6.93;1.65;;;4.90;99.90;;;;;;5054826;28;20091;-76
2022/02/20 01:47:50;;;;;;;5.75;1.20;;;4.90;99.90;;;;;;5053808;28;20498;-76
2022/02/20 01:50:16;;;;;;;6.35;1.10;;;4.90;99.90;;;;;;5054629;28;20398;-76
2022/02/20 01:52:45;;;;;;;8.60;1.10;;;5.00;99.90;;;;;;5053769;28;20055;-76
2022/02/20 01:55:12;;;;;;;7.75;0.85;;;4.90;99.90;;;;;;5054288;28;20037;-76
2022/02/20 01:57:39;;;;;;;6.47;1.10;;;5.00;99.90;;;;;;5052846;28;20060;-76
2022/02/20 02:00:08;;;;;;;3.20;0.90;;;5.00;99.90;;;;;;5054345;28;20090;-76
2022/02/20 02:02:34;;;;;;;10.52;1.30;;;5.00;99.90;;;;;;5053687;28;20064;-76
2022/02/20 02:04:59;;;;;;;3.92;1.00;;;5.00;99.90;;;;;;5054321;28;20056;-76
2022/02/20 02:07:28;;;;;;;4.57;1.38;;;5.10;99.90;;;;;;5054242;28;20025;-76
2022/02/20 02:09:53;;;;;;;6.60;1.25;;;5.10;99.90;;;;;;5053603;28;20028;-76
2022/02/20 02:12:19;;;;;;;7.07;0.90;;;5.10;99.90;;;;;;5054441;28;20021;-76
2022/02/20 02:14:59;;;;;;;6.43;0.80;;;5.10;99.90;;;;;;5053090;28;20529;-76
2022/02/20 02:17:25;;;;;;;4.25;0.93;;;5.10;99.90;;;;;;5054072;28;20060;-76
2022/02/20 02:19:51;;;;;;;8.45;1.20;;;5.10;99.90;;;;;;5053248;28;20269;-76
2022/02/20 02:22:27;;;;;;;10.20;1.00;;;5.10;99.90;;;;;;5053452;28;20425;-76
2022/02/20 02:24:54;;;;;;;3.53;1.15;;;5.10;99.90;;;;;;5052860;28;20033;-75
2022/02/20 02:27:19;;;;;;;4.55;0.77;;;5.10;99.90;;;;;;5053305;28;20349;-76
2022/02/20 02:29:47;;;;;;;5.25;1.10;;;5.10;99.90;;;;;;5052358;28;20143;-75
2022/02/20 02:32:13;;;;;;;7.80;1.45;;;5.10;99.90;;;;;;5053256;28;20021;-75
2022/02/20 02:34:43;;;;;;;7.60;0.90;;;5.10;99.90;;;;;;5052681;28;20043;-75
2022/02/20 02:37:09;;;;;;;;;;;5.20;99.90;;;;;;5053842;28;20477;-75
2022/02/20 02:39:36;;;;;;;6.88;1.08;;;5.20;99.90;;;;;;5052512;28;19905;-75
2022/02/20 02:42:03;;;;;;;5.40;1.15;;;5.20;99.90;;;;;;5052717;28;20463;-76
2022/02/20 02:44:29;;;;;;;6.72;1.15;;;5.20;99.90;;;;;;5052743;28;20059;-75
2022/02/20 02:46:55;;;;;;;8.88;1.75;;;5.20;99.90;;;;;;5052200;28;20170;-75
2022/02/20 02:49:21;;;;;;;5.28;1.02;;;5.30;99.90;;;;;;5052443;28;20087;-75
2022/02/20 02:51:47;;;;;;;3.60;0.80;;;5.30;99.90;;;;;;5052233;28;20108;-77
2022/02/20 02:54:17;;;;;;;3.45;0.80;;;5.30;99.90;;;;;;5052757;28;20098;-78
2022/02/20 02:56:43;;;;;;;3.40;0.65;;;5.40;99.90;;;;;;5051954;28;20470;-75
2022/02/20 02:59:10;;;;;;;4.55;1.00;;;5.30;99.90;;;;;;5052767;28;20021;-75
2022/02/20 03:01:36;;;;;;;4.63;0.93;;;5.30;99.90;;;;;;5052085;28;20080;-77
2022/02/20 03:04:01;;;;;;;6.95;1.25;;;5.30;99.90;;;;;;5052334;28;20076;-77
2022/02/20 03:06:27;;;;;;;3.10;0.70;;;5.30;99.90;;;;;;5055470;28;20071;-77
2022/02/20 03:08:53;;;;;;;2.50;0.77;;;5.30;99.90;;;;;;5051828;28;20112;-77
2022/02/20 03:11:18;;;;;;;5.97;0.85;;;5.40;99.90;;;;;;5052546;28;20032;-75
2022/02/20 03:13:44;;;;;;;5.75;1.00;;;5.40;99.90;;;;;;5051771;28;20037;-75
2022/02/20 03:16:10;;;;;;;6.50;0.95;;;5.40;99.90;;;;;;5052412;28;20048;-75
2022/02/20 03:18:36;;;;;;;12.25;1.00;;;5.40;99.90;;;;;;5051460;28;20502;-75
2022/02/20 03:21:05;;;;;;;8.15;1.08;;;5.40;99.90;;;;;;5052262;28;20029;-75
2022/02/20 03:23:31;;;;;;;6.43;1.02;;;5.40;99.90;;;;;;5051945;28;20036;-76
2022/02/20 03:25:56;;;;;;;6.70;0.98;;;5.50;99.90;;;;;;5051405;28;20355;-77
2022/02/20 03:28:22;;;;;;;5.13;0.88;;;5.50;99.90;;;;;;5051952;28;20032;-78
2022/02/20 03:30:48;;;;;;;3.88;0.63;;;5.50;99.90;;;;;;5051483;28;20021;-77
2022/02/20 03:33:14;;;;;;;3.83;0.75;;;5.50;99.90;;;;;;5051750;28;20535;-77
2022/02/20 03:35:40;;;;;;;2.45;0.52;;;5.50;99.90;;;;;;5051639;28;20311;-77
2022/02/20 03:38:05;;;;;;;3.80;0.80;;;5.40;99.90;;;;;;5052233;28;20021;-77
2022/02/20 03:40:31;;;;;;;5.90;1.35;;;5.40;99.90;;;;;;5052105;28;20388;-77
2022/02/20 03:42:59;;;;;;;3.58;0.63;;;5.40;99.90;;;;;;5050913;28;20553;-74
2022/02/20 03:45:25;;;;;;;6.60;1.08;;;5.40;99.90;;;;;;5051807;28;20378;-75
2022/02/20 03:47:51;;;;;;;3.97;0.95;;;5.40;99.90;;;;;;5051027;28;20044;-77
2022/02/20 03:50:17;;;;;;;3.38;0.93;;;5.40;99.90;;;;;;5051812;28;20033;-77
2022/02/20 03:52:43;;;;;;;2.72;0.55;;;5.40;99.90;;;;;;5051235;28;20024;-77
2022/02/20 03:55:09;;;;;;;5.25;0.70;;;5.50;99.90;;;;;;5051594;28;20041;-77
2022/02/20 03:57:36;;;;;;;7.32;0.90;;;5.50;99.90;;;;;;5051193;28;20052;-76
2022/02/20 04:00:10;;;;;;;3.28;0.60;;;5.50;99.90;;;;;;5051992;28;20025;-77
2022/02/20 04:02:37;;;;;;;5.47;0.70;;;5.50;99.90;;;;;;5051057;28;20425;-74
2022/02/20 04:05:07;;;;;;;3.67;0.40;;;5.50;99.90;;;;;;5051516;28;20030;-78
2022/02/20 04:07:34;;;;;;;5.72;0.90;;;5.40;99.90;;;;;;5051639;28;20056;-76
2022/02/20 04:10:00;;;;;;;5.38;0.60;;;5.30;99.90;;;;;;5051261;28;20029;-75
2022/02/20 04:12:26;;;;;;;6.85;0.95;;;5.30;99.90;;;;;;5051691;28;20025;-75
2022/02/20 04:14:52;;;;;;;4.22;0.77;;;5.20;99.90;;;;;;5052571;28;20128;-74
2022/02/20 04:17:20;;;;;;;6.93;0.93;;;5.20;99.90;;;;;;5059110;28;20433;-74
2022/02/20 04:19:46;;;;;;;3.90;0.60;;;5.20;99.90;;;;;;5074627;28;20036;-74
2022/02/20 04:22:12;;;;;;;3.75;0.35;;;5.20;99.90;;;;;;5061567;28;20029;-75
2022/02/20 04:24:38;;;;;;;1.50;0.35;;;5.20;99.90;;;;;;5057532;28;20120;-74
2022/02/20 04:27:04;;;;;;;3.10;0.52;;;5.20;99.90;;;;;;5057788;28;20025;-75
2022/02/20 04:29:30;;;;;;;1.85;0.52;;;5.30;99.90;;;;;;5058065;28;20032;-75
2022/02/20 04:31:55;;;;;;;3.42;0.45;;;5.30;99.90;;;;;;5057637;28;20033;-75
2022/02/20 04:34:21;;;;;;;3.90;0.70;;;5.30;99.90;;;;;;5057922;28;20466;-76
2022/02/20 04:36:47;;;;;;;7.47;1.23;;;5.20;99.90;;;;;;5057240;28;20033;-76
2022/02/20 04:39:12;;;;;;;1.23;0.20;;;5.30;99.90;;;;;;5057495;28;20025;-77
2022/02/20 04:41:38;;;;;;;3.83;0.38;;;5.30;99.90;;;;;;5056962;28;20083;-72
2022/02/20 04:44:04;;;;;;;2.85;1.13;;;5.30;99.90;;;;;;5057073;28;20073;-75
2022/02/20 04:46:33;;;;;;;2.15;0.40;;;5.30;99.90;;;;;;5057571;28;20319;-76
2022/02/20 04:49:00;;;;;;;1.30;0.25;;;5.30;99.90;;;;;;5056499;28;20061;-73
2022/02/20 04:51:25;;;;;;;1.45;0.30;;;5.30;99.90;;;;;;5057673;28;20036;-73
2022/02/20 04:53:51;;;;;;;2.05;0.30;;;5.30;99.90;;;;;;5057217;28;20033;-76
2022/02/20 04:56:17;;;;;;;0.70;0.40;;;5.30;99.90;;;;;;5057724;28;20036;-76
2022/02/20 04:58:42;;;;;;;3.28;0.43;;;5.30;99.90;;;;;;5056763;28;20059;-76
2022/02/20 05:01:08;;;;;;;2.20;0.30;;;5.30;99.90;;;;;;5057713;28;20029;-75
2022/02/20 05:03:34;;;;;;;2.83;0.30;;;5.30;99.90;;;;;;5057692;28;20031;-76
2022/02/20 05:06:00;;;;;;;1.75;0.68;;;5.20;99.90;;;;;;5056905;28;20801;-76
2022/02/20 05:08:26;;;;;;;1.60;0.45;;;5.20;99.90;;;;;;5057305;28;20082;-76
2022/02/20 05:10:52;;;;;;;1.98;0.52;;;5.20;99.90;;;;;;5056409;28;20025;-75
2022/02/20 05:13:17;;;;;;;3.45;0.40;;;5.10;99.90;;;;;;5057167;28;20033;-76
2022/02/20 05:15:43;;;;;;;0.98;0.30;;;5.00;99.90;;;;;;5056407;28;20533;-75
2022/02/20 05:18:08;;;;;;;1.65;0.47;;;4.90;99.90;;;;;;5057050;28;20435;-77
2022/02/20 05:20:35;;;;;;;2.72;0.50;;;4.90;99.90;;;;;;5057184;28;20025;-76
2022/02/20 05:23:01;;;;;;;1.20;0.40;;;4.80;99.90;;;;;;5056351;28;20370;-76
2022/02/20 05:25:26;;;;;;;2.33;0.50;;;4.80;99.90;;;;;;5057510;28;20517;-77
2022/02/20 05:27:52;;;;;;;2.55;0.40;;;4.80;99.90;;;;;;5056826;28;20029;-76
2022/02/20 05:30:20;;;;;;;1.98;0.45;;;4.80;99.90;;;;;;5056782;28;20024;-77
2022/02/20 05:32:46;;;;;;;3.38;0.50;;;4.90;99.90;;;;;;5052165;28;20061;-76
2022/02/20 05:35:12;;;;;;;2.55;0.40;;;4.80;99.90;;;;;;5053548;28;20068;-76
2022/02/20 05:37:46;;;;;;;3.47;1.05;;;4.80;99.90;;;;;;5053465;28;20386;-76
2022/02/20 05:40:14;;;;;;;4.22;0.50;;;4.80;99.90;;;;;;5053872;28;20032;-76
2022/02/20 05:42:39;;;;;;;1.77;0.40;;;4.80;99.90;;;;;;5053626;28;20021;-74
2022/02/20 05:45:06;;;;;;;2.67;0.70;;;4.80;99.90;;;;;;5053060;28;20108;-77
2022/02/20 05:47:32;;;;;;;3.80;0.50;;;4.70;99.90;;;;;;5053206;28;20039;-76
2022/02/20 05:49:57;;;;;;;2.63;0.40;;;4.70;99.90;;;;;;5052533;28;20029;-76
2022/02/20 05:52:23;;;;;;;1.52;0.47;;;4.60;99.90;;;;;;5053385;28;20021;-76
2022/02/20 05:54:49;;;;;;;1.75;0.45;;;4.60;99.90;;;;;;5052588;28;20083;-76
2022/02/20 05:57:14;;;;;;;1.80;0.45;;;4.60;99.90;;;;;;5053293;28;20045;-76
2022/02/20 05:59:40;;;;;;;3.25;0.63;;;4.60;99.90;;;;;;5051398;28;20068;-72
2022/02/20 06:02:06;;;;;;;5.55;1.15;;;4.70;99.90;;;;;;5053386;28;20026;-77
2022/02/20 06:04:32;;;;;;;3.38;0.65;;;4.70;99.90;;;;;;5053875;28;20060;-75
2022/02/20 06:06:57;;;;;;;5.18;0.50;;;4.70;99.90;;;;;;5052262;28;20018;-78
2022/02/20 06:09:23;;;;;;;4.65;0.50;;;4.70;99.90;;;;;;5050950;28;20031;-77
2022/02/20 06:11:50;;;;;;;2.58;0.40;;;4.70;99.90;;;;;;5051530;28;20056;-76
2022/02/20 06:14:15;;;;;;;4.57;0.57;;;4.80;99.90;;;;;;5049637;28;20378;-77
2022/02/20 06:16:41;;;;;;;2.72;0.35;;;4.80;99.90;;;;;;5051837;28;20021;-73
2022/02/20 06:19:07;;;;;;;2.33;0.38;;;4.90;99.90;;;;;;5052009;28;20024;-78
2022/02/20 06:21:32;;;;;;;2.75;0.60;;;4.90;99.90;;;;;;5052072;28;20029;-76
2022/02/20 06:23:58;;;;;;;5.15;0.50;;;5.00;99.90;;;;;;5051753;28;20132;-75
2022/02/20 06:26:24;;;;;;;2.22;0.47;;;5.00;99.90;;;;;;5052299;28;20429;-77
2022/02/20 06:28:49;;;;;;;0.90;0.40;;;5.10;99.90;;;;;;5051474;28;20420;-76
2022/02/20 06:31:15;;;;;;;1.10;0.40;;;5.00;99.90;;;;;;5051828;28;20055;-79
2022/02/20 06:33:41;;;;;;;3.90;0.30;;;5.00;99.90;;;;;;5051721;28;20053;-73
2022/02/20 06:36:07;;;;;;;1.08;0.22;;;5.00;99.90;;;;;;5051813;28;20032;-77
2022/02/20 06:38:33;;;;;;;2.83;0.30;;;5.10;99.90;;;;;;5052036;28;20028;-78
2022/02/20 06:40:59;;;;;;;2.67;0.73;;;5.10;99.90;;;;;;5051316;28;20151;-75
2022/02/20 06:43:25;;;;;;;1.42;0.32;;;5.20;99.90;;;;;;5051636;28;20040;-78
2022/02/20 06:45:51;;;;;;;1.08;0.20;;;5.20;99.90;;;;;;5051008;28;20474;-76
2022/02/20 06:48:16;;;;;;;1.45;0.40;;;5.30;99.90;;;;;;5051209;28;20036;-75
2022/02/20 06:50:42;;;;;;;1.60;0.35;;;5.30;99.90;;;;;;5050290;28;20036;-79
2022/02/20 06:53:08;;;;;;;1.23;0.30;;;5.40;99.90;;;;;;5052826;28;20025;-77
2022/02/20 06:55:33;;;;;;;4.95;0.47;;;5.50;99.90;;;;;;5054651;28;20017;-77
2022/02/20 06:57:59;;;;;;;1.05;0.20;;;5.50;99.90;;;;;;5051702;28;20529;-76
2022/02/20 07:00:25;;;;;;;1.63;0.25;;;5.60;99.90;;;;;;5052002;28;20470;-77
2022/02/20 07:02:51;;;;;;;1.20;0.10;;;5.60;99.90;;;;;;5048519;28;20045;-77
2022/02/20 07:05:17;;;;;;;1.60;0.22;;;5.50;99.90;;;;;;5052335;28;20025;-77
2022/02/20 07:07:42;;;;;;;1.15;0.30;;;5.60;99.90;;;;;;5051357;28;20023;-73
2022/02/20 07:10:09;;;;;;;1.13;0.30;;;5.60;99.90;;;;;;5052047;28;20025;-77
2022/02/20 07:12:36;;;;;;;1.10;0.35;;;5.70;99.90;;;;;;5051951;28;20028;-77
2022/02/20 07:15:03;;;;;;;1.33;0.45;;;5.70;99.90;;;;;;5049674;28;20553;-78
2022/02/20 07:17:29;;;;;;;1.10;0.30;;;5.70;99.90;;;;;;5051547;28;20032;-75
2022/02/20 07:19:55;;;;;;;4.03;0.50;;;5.70;99.90;;;;;;5050582;28;20032;-76
2022/02/20 07:22:20;;;;;;;0.80;0.30;;;5.70;99.90;;;;;;5051117;28;20040;-76
2022/02/20 07:24:46;;;;;;;2.35;0.28;;;5.80;99.90;;;;;;5050949;28;20047;-77
2022/02/20 07:27:12;;;;;;;2.63;0.40;;;5.80;99.90;;;;;;5051553;28;20386;-74
2022/02/20 07:29:37;;;;;;;6.10;1.48;;;5.90;99.90;;;;;;5051948;28;20040;-77
2022/02/20 07:32:03;;;;;;;1.10;0.63;;;5.90;99.90;;;;;;5051636;28;20096;-81
2022/02/20 07:34:29;;;;;;;0.90;0.35;;;5.90;99.90;;;;;;5051898;28;20044;-84
2022/02/20 07:36:55;;;;;;;1.27;0.40;;;6.00;99.90;;;;;;5050784;28;20021;-77
2022/02/20 07:39:20;;;;;;;0.68;0.30;;;6.00;99.90;;;;;;5051552;28;20025;-85
2022/02/20 07:41:46;;;;;;;2.78;0.30;;;6.00;99.90;;;;;;5049992;28;20611;-74
2022/02/20 07:44:12;;;;;;;0.95;0.32;;;6.00;99.90;;;;;;5048021;28;20036;-78
2022/02/20 07:46:37;;;;;;;1.50;0.40;;;6.10;99.90;;;;;;5051472;28;20108;-78
2022/02/20 07:49:04;;;;;;;3.30;0.52;;;6.10;99.90;;;;;;5051871;28;20041;-82
2022/02/20 07:51:30;;;;;;;1.58;0.40;;;6.10;99.90;;;;;;5052402;28;20458;-78
2022/02/20 07:53:56;;;;;;;1.13;0.40;;;6.20;99.90;;;;;;5050065;28;20091;-78
2022/02/20 07:56:22;;;;;;;1.80;0.40;;;6.30;99.90;;;;;;5051858;28;20036;-75
2022/02/20 07:58:48;;;;;;;1.33;0.73;;;6.30;99.90;;;;;;5050623;28;20124;-80
2022/02/20 08:01:13;;;;;;;3.65;0.70;;;6.30;99.90;;;;;;5051995;28;20068;-78
2022/02/20 08:03:39;;;;;;;1.60;0.35;;;6.40;99.90;;;;;;5051924;28;20403;-70
2022/02/20 08:06:06;;;;;;;0.70;0.50;;;6.50;99.90;;;;;;5051431;28;20025;-72
2022/02/20 08:08:35;;;;;;;0.85;0.40;;;6.60;99.90;;;;;;5051295;28;20050;-77
2022/02/20 08:11:01;;;;;;;1.60;0.52;;;6.60;99.90;;;;;;5051292;28;20032;-76
2022/02/20 08:13:27;;;;;;;4.38;0.75;;;6.70;99.90;;;;;;5052058;28;20041;-77
2022/02/20 08:15:54;;;;;;;2.13;0.70;;;6.80;99.90;;;;;;5049602;28;20029;-78
2022/02/20 08:18:20;;;;;;;2.80;0.43;;;6.80;99.90;;;;;;5051935;28;20029;-81
2022/02/20 08:20:46;;;;;;;2.47;0.43;;;6.80;99.90;;;;;;5051196;28;20080;-78
2022/02/20 08:23:14;;;;;;;4.00;0.57;;;6.80;99.90;;;;;;5051489;28;20029;-79
2022/02/20 08:25:40;;;;;;;1.13;0.40;;;6.90;99.90;;;;;;5051808;28;20032;-79
2022/02/20 08:28:07;;;;;;;3.80;0.70;;;6.90;99.90;;;;;;5052372;28;20021;-78
2022/02/20 08:30:32;;;;;;;3.97;0.50;;;6.90;99.90;;;;;;5052292;28;20052;-78
2022/02/20 08:32:58;;;;;;;2.58;0.60;;;7.10;99.90;;;;;;5050880;28;20033;-75
2022/02/20 08:35:24;;;;;;;3.13;0.47;;;7.20;99.90;;;;;;5051371;28;20036;-79
2022/02/20 08:37:50;;;;;;;4.78;0.73;;;7.30;99.90;;;;;;5050799;28;20094;-77
2022/02/20 08:40:17;;;;;;;3.72;0.60;;;7.40;99.90;;;;;;5057750;28;20033;-76
2022/02/20 08:42:44;;;;;;;1.10;0.68;;;7.40;99.90;;;;;;5061670;28;20025;-73
2022/02/20 08:45:11;;;;;;;3.70;0.60;;;7.40;99.90;;;;;;5051077;28;20060;-77
2022/02/20 08:47:37;;;;;;;2.90;0.50;;;7.40;99.90;;;;;;5051445;28;20112;-78
2022/02/20 08:50:04;;;;;;;3.05;0.40;;;7.50;99.90;;;;;;5051098;28;20100;-78
2022/02/20 08:52:30;;;;;;;2.70;0.60;;;7.50;99.90;;;;;;5051690;28;20052;-78
2022/02/20 08:54:56;;;;;;;4.47;0.77;;;7.60;99.90;;;;;;5051067;28;20486;-78
2022/02/20 08:57:21;;;;;;;2.58;0.50;;;7.60;99.90;;;;;;5051741;28;20477;-78
2022/02/20 08:59:49;;;;;;;1.95;0.50;;;7.70;99.90;;;;;;5051407;28;20458;-78
2022/02/20 09:02:15;;;;;;;1.70;0.63;;;7.90;99.90;;;;;;5051600;28;20021;-77
2022/02/20 09:04:40;;;;;;;1.92;0.55;;;8.10;99.90;;;;;;5051645;28;20103;-78
2022/02/20 09:07:07;;;;;;;1.73;0.60;;;8.20;99.90;;;;;;5053369;28;20128;-79
2022/02/20 09:09:33;;;;;;;2.47;0.60;;;8.30;99.90;;;;;;5055409;28;20029;-79
2022/02/20 09:11:59;;;;;;;1.73;0.47;;;8.40;99.90;;;;;;5054936;28;20429;-79
2022/02/20 09:14:25;;;;;;;3.08;0.65;;;8.40;99.90;;;;;;5055037;28;20024;-79
2022/02/20 09:16:50;;;;;;;2.85;0.47;;;8.40;99.90;;;;;;5053574;28;20028;-79
2022/02/20 09:19:16;;;;;;;1.20;0.40;;;8.50;99.90;;;;;;5055868;28;20358;-79
2022/02/20 09:21:42;;;;;;;1.48;0.30;;;8.50;99.90;;;;;;5054958;28;20040;-78
2022/02/20 09:24:07;;;;;;;1.70;0.28;;;8.50;99.90;;;;;;5054383;28;20108;-77
2022/02/20 09:26:33;;;;;;;1.30;0.30;;;8.60;99.90;;;;;;5054950;28;20151;-78
2022/02/20 09:28:59;;;;;;;1.38;0.40;;;8.50;99.90;;;;;;5054541;28;20038;-78
2022/02/20 09:31:25;;;;;;;1.40;0.45;;;8.60;99.90;;;;;;5054819;28;20435;-78
2022/02/20 09:33:50;;;;;;;0.73;0.35;;;8.60;99.90;;;;;;5054182;28;20032;-78
2022/02/20 09:36:16;;;;;;;1.30;0.52;;;8.70;99.90;;;;;;5054487;28;20025;-78
2022/02/20 09:38:42;;;;;;;1.17;0.52;;;8.70;99.90;;;;;;5054521;28;20148;-78
2022/02/20 09:41:09;;;;;;;1.65;0.43;;;8.80;99.90;;;;;;5054126;28;20079;-78
2022/02/20 09:43:37;;;;;;;1.45;0.40;;;8.80;99.90;;;;;;5054480;28;20036;-78
2022/02/20 09:46:04;;;;;;;0.65;0.35;;;8.90;99.90;;;;;;5053791;28;20024;-77
2022/02/20 09:48:31;;;;;;;2.13;0.25;;;8.90;99.90;;;;;;5054408;28;20115;-78
2022/02/20 09:50:59;;;;;;;2.20;0.35;;;8.90;99.90;;;;;;5053759;28;20024;-78
2022/02/20 09:53:26;;;;;;;2.28;0.50;;;8.90;99.90;;;;;;5054411;28;20025;-77
2022/02/20 09:55:51;;;;;;;1.98;1.08;;;9.00;99.90;;;;;;5053793;28;20074;-78
2022/02/20 09:58:18;;;;;;;1.38;0.30;;;9.00;99.90;;;;;;5054078;28;20045;-78
2022/02/20 10:00:55;;;;;;;0.50;0.20;;;9.10;99.90;;;;;;5054156;28;20104;-72
2022/02/20 10:03:45;;;;;;;1.35;0.38;;;9.10;99.90;;;;;;5054369;28;20107;-79
2022/02/20 10:06:14;;;;;;;1.60;0.32;;;9.10;99.90;;;;;;5054261;28;20021;-78
2022/02/20 10:08:45;;;;;;;0.70;0.28;;;9.10;99.90;;;;;;5054225;28;20017;-78
2022/02/20 10:11:24;;;;;;;1.27;0.43;;;9.10;99.90;;;;;;5054201;28;20021;-78
2022/02/20 10:13:51;;;;;;;0.77;0.20;;;9.10;99.90;;;;;;5052013;28;20087;-78
2022/02/20 10:16:21;;;;;;;2.70;0.40;;;9.10;99.90;;;;;;5054207;28;20532;-78
2022/02/20 10:18:48;;;;;;;0.38;0.13;;;9.10;99.90;;;;;;5052967;28;20036;-78
2022/02/20 10:21:29;;;;;;;0.80;0.30;;;9.10;99.90;;;;;;5054037;28;20112;-78
2022/02/20 10:23:56;;;;;;;;;;;9.10;99.90;;;;;;5059051;28;20085;-78
2022/02/20 10:26:27;;;;;;;0.52;0.20;;;9.20;99.90;;;;;;5053939;28;19904;-78
2022/02/20 10:29:21;;;;;;;1.27;0.40;;;9.20;99.90;;;;;;5052145;28;20468;-78
2022/02/20 10:31:54;;;;;;;0.45;0.20;;;9.10;99.90;;;;;;5052983;28;20123;-77
2022/02/20 10:34:21;;;;;;;2.20;0.47;;;9.30;99.90;;;;;;5053507;28;20103;-80
2022/02/20 10:36:55;;;;;;;1.55;0.50;;;9.40;99.90;;;;;;5052824;28;20052;-78
2022/02/20 10:39:33;;;;;;;2.60;0.40;;;9.70;99.90;;;;;;5053540;28;20498;-78
2022/02/20 10:42:01;;;;;;;0.35;0.20;;;9.70;99.90;;;;;;5052794;28;20377;-79
2022/02/20 10:44:28;;;;;;;2.08;0.32;;;9.80;99.90;;;;;;5053225;28;20036;-78
2022/02/20 10:47:11;;;;;;;0.98;0.47;;;10.00;99.90;;;;;;5058081;28;20047;-78
2022/02/20 10:49:37;;;;;;;1.35;0.35;;;10.00;99.70;;;;;;5053518;28;20045;-78
2022/02/20 10:52:03;;;;;;;0.90;0.40;;;9.90;99.90;;;;;;5052800;28;20123;-78
2022/02/20 10:54:29;;;;;;;5.00;0.60;;;10.00;99.50;;;;;;5052029;28;20429;-78
2022/02/20 10:56:55;;;;;;;0.82;0.50;;;10.10;99.40;;;;;;5052597;28;20076;-78
2022/02/20 10:59:21;;;;;;;1.45;0.30;;;10.00;99.30;;;;;;5053379;28;20395;-78
2022/02/20 11:01:49;;;;;;;2.35;0.77;;;10.10;99.20;;;;;;5052408;28;20465;-75
2022/02/20 11:04:15;;;;;;;1.15;0.32;;;10.20;98.70;;;;;;5053194;28;20021;-79
2022/02/20 11:06:47;;;;;;;0.17;0.10;;;10.10;98.60;;;;;;5053233;28;20021;-79
2022/02/20 11:09:14;;;;;;;1.45;0.30;;;10.20;98.70;;;;;;5053263;28;20107;-80
2022/02/20 11:11:49;;;;;;;1.02;0.25;;;10.30;98.50;;;;;;5052967;28;20025;-79
2022/02/20 11:14:20;;;;;;;0.52;0.20;;;10.30;97.90;;;;;;5053262;28;20343;-78
2022/02/20 11:16:53;;;;;;;0.88;0.20;;;10.30;98.10;;;;;;5056666;28;20095;-78
2022/02/20 11:19:24;;;;;;;0.20;0.10;;;10.30;98.00;;;;;;5073234;28;20021;-79
2022/02/20 11:21:58;;;;;;;1.92;0.30;;;10.30;98.00;;;;;;5062685;28;20044;-78
2022/02/20 11:24:27;;;;;;;1.08;0.20;;;10.40;97.50;;;;;;5053540;28;20053;-80
2022/02/20 11:26:54;;;;;;;1.13;0.30;;;10.30;97.50;;;;;;5050861;28;20111;-79
2022/02/20 11:29:22;;;;;;;0.77;0.30;;;10.20;97.80;;;;;;5051910;28;20660;-79
2022/02/20 11:31:49;;;;;;;3.95;0.70;;;10.30;97.60;;;;;;5052128;28;20029;-78
2022/02/20 11:34:15;;;;;;;1.40;0.30;;;10.40;97.60;;;;;;5052555;28;20039;-80
2022/02/20 11:36:56;;;;;;;0.95;0.25;;;10.50;97.10;;;;;;5052718;28;20100;-79
2022/02/20 11:39:24;;;;;;;0.60;0.28;;;10.60;97.00;;;;;;5052862;28;20017;-79
2022/02/20 11:42:13;;;;;;;1.73;0.30;;;10.50;97.10;;;;;;5051851;28;20028;-78
2022/02/20 11:44:55;;;;;;;0.68;0.20;;;10.40;97.40;;;;;;5052450;28;20021;-79
2022/02/20 11:47:43;;;;;;;0.73;0.20;;;10.30;97.40;;;;;;5052456;28;20025;-78
2022/02/20 11:50:17;;;;;;;1.38;0.20;;;10.30;97.80;;;;;;5051870;28;20033;-78
2022/02/20 11:52:54;;;;;;;0.68;0.43;;;10.40;97.60;;;;;;5052419;28;20024;-80
2022/02/20 11:55:32;;;;;;;0.57;0.40;;;10.40;97.50;;;;;;5052171;28;20368;-80
2022/02/20 11:58:27;;;;;;;1.17;0.20;;;10.40;97.20;;;;;;5051215;28;20033;-79
2022/02/20 12:00:56;;;;;;;1.52;0.20;;;10.40;97.30;;;;;;5050768;28;20033;-79
2022/02/20 12:03:49;;;;;;;1.50;0.32;;;10.40;97.50;;;;;;5052249;28;20024;-79
2022/02/20 12:06:17;;;;;;;1.27;0.32;;;10.40;97.40;;;;;;5051607;28;20047;-78
2022/02/20 12:08:49;;;;;;;2.63;0.60;;;10.40;97.30;;;;;;5052238;28;20358;-78
2022/02/20 12:11:24;;;;;;;1.00;0.77;;;10.50;97.20;;;;;;5052607;28;20024;-79
2022/02/20 12:13:55;;;;;;;2.83;1.20;;;10.50;97.50;;;;;;5051133;28;20028;-79
2022/02/20 12:16:37;;;;;;;1.02;0.68;;;10.60;96.80;;;;;;5051965;28;20029;-78
2022/02/20 12:19:14;;;;;;;1.48;0.50;;;10.50;96.90;;;;;;5051744;28;20025;-80
2022/02/20 12:22:02;;;;;;;0.43;0.20;;;10.50;97.00;;;;;;5055229;28;20021;-79
2022/02/20 12:24:28;;;;;;;0.57;0.20;;;10.50;97.10;;;;;;5052087;28;20039;-79
2022/02/20 12:27:00;;;;;;;1.25;0.43;;;10.40;97.20;;;;;;5052299;28;20055;-80
2022/02/20 12:29:35;;;;;;;2.60;0.88;;;10.40;97.50;;;;;;5052011;28;20021;-80
2022/02/20 12:32:06;;;;;;;1.20;1.00;;;10.40;97.60;;;;;;5052790;28;20023;-79
2022/02/20 12:35:11;;;;;;;1.83;1.13;;;10.50;97.30;;;;;;5053114;28;20025;-79
2022/02/20 12:37:38;;;;;;;0.93;0.82;;;10.40;97.30;;;;;;5053348;28;20027;-79
2022/02/20 12:40:16;;;;;;;2.45;0.80;;;10.40;97.70;;;;;;5051727;28;20079;-78
2022/02/20 12:42:48;;;;;;;0.77;0.50;;;10.50;97.50;;;;;;5055719;28;20439;-78
2022/02/20 12:45:21;;;;;;;1.08;0.68;;;10.50;97.40;;;;;;5053175;28;20103;-79
2022/02/20 12:47:48;;;;;;;3.88;2.60;;;10.50;97.50;;;;;;5055629;28;20029;-79
2022/02/20 12:50:15;;;;;;;13.48;8.00;;;10.60;97.50;;;;;;5055346;28;20021;-78
2022/02/20 12:52:41;;;;;;;17.02;10.15;;;10.70;97.50;;;;;;5055675;28;20025;-79
2022/02/20 12:55:14;;;;;;;7.85;4.93;;;10.70;97.30;;;;;;5053869;28;20083;-78
2022/02/20 12:57:40;;;;;;;11.10;5.72;;;10.80;97.10;;;;;;5055666;28;20132;-79